sensor_id;sensor_type;location;lat;lon;timestamp;temperature;humidity
11764;DHT22;5939;56.522;14.950;2022-12-19T00:01:29;-0.60;99.90
11764;DHT22;5939;56.522;14.950;2022-12-19T00:04:00;-0.60;99.90
11764;DHT22;5939;56.522;14.950;2022-12-19T00:06:28;-0.70;99.90
11764;DHT22;5939;56.522;14.950;2022-12-19T00:08:54;-0.70;99.90
11764;DHT22;5939;56.522;14.950;2022-12-19T00:11:22;-0.60;99.90
11764;DHT22;5939;56.522;14.950;2022-12-19T00:13:47;-0.60;99.90
11764;DHT22;5939;56.522;14.950;2022-12-19T00:16:16;-0.60;99.90
11764;DHT22;5939;56.522;14.950;2022-12-19T00:18:43;-0.60;99.90
11764;DHT22;5939;56.522;14.950;2022-12-19T00:21:11;-0.60;99.90
11764;DHT22;5939;56.522;14.950;2022-12-19T00:23:38;-0.60;99.90
11764;DHT22;5939;56.522;14.950;2022-12-19T00:26:22;-0.60;99.90
11764;DHT22;5939;56.522;14.950;2022-12-19T00:28:51;-0.60;99.90
11764;DHT22;5939;56.522;14.950;2022-12-19T00:31:18;-0.60;99.90
11764;DHT22;5939;56.522;14.950;2022-12-19T00:33:45;-0.60;99.90
11764;DHT22;5939;56.522;14.950;2022-12-19T00:36:19;-0.60;99.90
11764;DHT22;5939;56.522;14.950;2022-12-19T00:38:46;-0.60;99.90
11764;DHT22;5939;56.522;14.950;2022-12-19T00:41:17;-0.60;99.90
11764;DHT22;5939;56.522;14.950;2022-12-19T00:43:43;-0.60;99.90
11764;DHT22;5939;56.522;14.950;2022-12-19T00:46:14;-0.60;99.90
11764;DHT22;5939;56.522;14.950;2022-12-19T00:48:41;-0.60;99.90
11764;DHT22;5939;56.522;14.950;2022-12-19T00:51:10;-0.60;99.90
11764;DHT22;5939;56.522;14.950;2022-12-19T00:53:36;-0.60;99.90
11764;DHT22;5939;56.522;14.950;2022-12-19T00:56:03;-0.60;99.90
11764;DHT22;5939;56.522;14.950;2022-12-19T00:58:29;-0.60;99.90
11764;DHT22;5939;56.522;14.950;2022-12-19T01:00:55;-0.60;99.90
11764;DHT22;5939;56.522;14.950;2022-12-19T01:03:22;-0.60;99.90
11764;DHT22;5939;56.522;14.950;2022-12-19T01:05:49;-0.60;99.90
11764;DHT22;5939;56.522;14.950;2022-12-19T01:08:18;-0.60;99.90
11764;DHT22;5939;56.522;14.950;2022-12-19T01:10:45;-0.60;99.90
11764;DHT22;5939;56.522;14.950;2022-12-19T01:13:12;-0.60;99.90
11764;DHT22;5939;56.522;14.950;2022-12-19T01:15:39;-0.60;99.90
11764;DHT22;5939;56.522;14.950;2022-12-19T01:18:06;-0.50;99.90
11764;DHT22;5939;56.522;14.950;2022-12-19T01:20:40;-0.60;99.90
11764;DHT22;5939;56.522;14.950;2022-12-19T01:23:07;-0.50;99.90
11764;DHT22;5939;56.522;14.950;2022-12-19T01:25:34;-0.50;99.90
11764;DHT22;5939;56.522;14.950;2022-12-19T01:28:00;-0.50;99.90
11764;DHT22;5939;56.522;14.950;2022-12-19T01:30:26;-0.50;99.90
11764;DHT22;5939;56.522;14.950;2022-12-19T01:32:52;-0.50;99.90
11764;DHT22;5939;56.522;14.950;2022-12-19T01:35:18;-0.50;99.90
11764;DHT22;5939;56.522;14.950;2022-12-19T01:37:44;-0.50;99.90
11764;DHT22;5939;56.522;14.950;2022-12-19T01:40:11;-0.50;99.90
11764;DHT22;5939;56.522;14.950;2022-12-19T01:42:37;-0.50;99.90
11764;DHT22;5939;56.522;14.950;2022-12-19T01:48:05;-0.50;99.90
11764;DHT22;5939;56.522;14.950;2022-12-19T01:50:54;-0.50;99.90
11764;DHT22;5939;56.522;14.950;2022-12-19T01:53:23;-0.50;99.90
11764;DHT22;5939;56.522;14.950;2022-12-19T01:55:50;-0.50;99.90
11764;DHT22;5939;56.522;14.950;2022-12-19T01:58:16;-0.50;99.90
11764;DHT22;5939;56.522;14.950;2022-12-19T02:00:43;-0.50;99.90
11764;DHT22;5939;56.522;14.950;2022-12-19T02:03:13;-0.50;99.90
11764;DHT22;5939;56.522;14.950;2022-12-19T02:05:40;-0.50;99.90
11764;DHT22;5939;56.522;14.950;2022-12-19T02:08:06;-0.50;99.90
11764;DHT22;5939;56.522;14.950;2022-12-19T02:10:32;-0.50;99.90
11764;DHT22;5939;56.522;14.950;2022-12-19T02:12:58;-0.50;99.90
11764;DHT22;5939;56.522;14.950;2022-12-19T02:15:26;-0.50;99.90
11764;DHT22;5939;56.522;14.950;2022-12-19T02:22:07;-0.40;99.90
11764;DHT22;5939;56.522;14.950;2022-12-19T02:26:49;-0.50;99.90
11764;DHT22;5939;56.522;14.950;2022-12-19T02:32:17;-0.50;99.90
11764;DHT22;5939;56.522;14.950;2022-12-19T02:34:58;-0.50;99.90
11764;DHT22;5939;56.522;14.950;2022-12-19T02:37:34;-0.50;99.90
11764;DHT22;5939;56.522;14.950;2022-12-19T02:40:22;-0.40;99.90
11764;DHT22;5939;56.522;14.950;2022-12-19T02:42:53;-0.40;99.90
11764;DHT22;5939;56.522;14.950;2022-12-19T02:45:22;-0.40;99.90
11764;DHT22;5939;56.522;14.950;2022-12-19T02:47:50;-0.40;99.90
11764;DHT22;5939;56.522;14.950;2022-12-19T02:50:16;-0.40;99.90
11764;DHT22;5939;56.522;14.950;2022-12-19T02:52:44;-0.40;99.90
11764;DHT22;5939;56.522;14.950;2022-12-19T02:55:13;-0.40;99.90
11764;DHT22;5939;56.522;14.950;2022-12-19T03:00:26;-0.40;99.90
11764;DHT22;5939;56.522;14.950;2022-12-19T03:03:12;-0.40;99.90
11764;DHT22;5939;56.522;14.950;2022-12-19T03:06:07;-0.40;99.90
11764;DHT22;5939;56.522;14.950;2022-12-19T03:11:30;-0.40;99.90
11764;DHT22;5939;56.522;14.950;2022-12-19T03:14:06;-0.30;99.90
11764;DHT22;5939;56.522;14.950;2022-12-19T03:16:36;-0.30;99.90
11764;DHT22;5939;56.522;14.950;2022-12-19T03:19:02;-0.30;99.90
11764;DHT22;5939;56.522;14.950;2022-12-19T03:21:35;-0.30;99.90
11764;DHT22;5939;56.522;14.950;2022-12-19T03:24:03;-0.30;99.90
11764;DHT22;5939;56.522;14.950;2022-12-19T03:26:32;-0.30;99.90
11764;DHT22;5939;56.522;14.950;2022-12-19T03:31:39;-0.30;99.90
11764;DHT22;5939;56.522;14.950;2022-12-19T03:34:33;-0.30;99.90
11764;DHT22;5939;56.522;14.950;2022-12-19T03:37:03;-0.30;99.90
11764;DHT22;5939;56.522;14.950;2022-12-19T03:39:30;-0.30;99.90
11764;DHT22;5939;56.522;14.950;2022-12-19T03:41:58;-0.30;99.90
11764;DHT22;5939;56.522;14.950;2022-12-19T03:44:43;-0.30;99.90
11764;DHT22;5939;56.522;14.950;2022-12-19T03:47:14;-0.30;99.90
11764;DHT22;5939;56.522;14.950;2022-12-19T03:49:40;-0.30;99.90
11764;DHT22;5939;56.522;14.950;2022-12-19T03:57:41;-0.30;99.90
11764;DHT22;5939;56.522;14.950;2022-12-19T04:00:14;-0.30;99.90
11764;DHT22;5939;56.522;14.950;2022-12-19T04:02:43;-0.30;99.90
11764;DHT22;5939;56.522;14.950;2022-12-19T04:05:11;-0.30;99.90
11764;DHT22;5939;56.522;14.950;2022-12-19T04:07:39;-0.30;99.90
11764;DHT22;5939;56.522;14.950;2022-12-19T04:10:08;-0.20;99.90
11764;DHT22;5939;56.522;14.950;2022-12-19T04:12:38;-0.20;99.90
11764;DHT22;5939;56.522;14.950;2022-12-19T04:15:06;-0.30;99.90
11764;DHT22;5939;56.522;14.950;2022-12-19T04:20:14;-0.20;99.90
11764;DHT22;5939;56.522;14.950;2022-12-19T04:22:48;-0.20;99.90
11764;DHT22;5939;56.522;14.950;2022-12-19T04:25:19;-0.20;99.90
11764;DHT22;5939;56.522;14.950;2022-12-19T04:27:51;-0.20;99.90
11764;DHT22;5939;56.522;14.950;2022-12-19T04:30:19;-0.30;99.90
11764;DHT22;5939;56.522;14.950;2022-12-19T04:32:46;-0.30;99.90
11764;DHT22;5939;56.522;14.950;2022-12-19T04:35:12;-0.30;99.90
11764;DHT22;5939;56.522;14.950;2022-12-19T04:37:38;-0.30;99.90
11764;DHT22;5939;56.522;14.950;2022-12-19T04:40:05;-0.30;99.90
11764;DHT22;5939;56.522;14.950;2022-12-19T04:42:31;-0.30;99.90
11764;DHT22;5939;56.522;14.950;2022-12-19T04:44:56;-0.30;99.90
11764;DHT22;5939;56.522;14.950;2022-12-19T04:47:23;-0.30;99.90
11764;DHT22;5939;56.522;14.950;2022-12-19T04:49:48;-0.30;99.90
11764;DHT22;5939;56.522;14.950;2022-12-19T04:52:14;-0.30;99.90
11764;DHT22;5939;56.522;14.950;2022-12-19T04:54:40;-0.30;99.90
11764;DHT22;5939;56.522;14.950;2022-12-19T04:57:05;-0.30;99.90
11764;DHT22;5939;56.522;14.950;2022-12-19T04:59:31;-0.30;99.90
11764;DHT22;5939;56.522;14.950;2022-12-19T05:01:57;-0.30;99.90
11764;DHT22;5939;56.522;14.950;2022-12-19T05:04:23;-0.30;99.90
11764;DHT22;5939;56.522;14.950;2022-12-19T05:06:48;-0.30;99.90
11764;DHT22;5939;56.522;14.950;2022-12-19T05:09:14;-0.30;99.90
11764;DHT22;5939;56.522;14.950;2022-12-19T05:11:40;-0.30;99.90
11764;DHT22;5939;56.522;14.950;2022-12-19T05:14:05;-0.30;99.90
11764;DHT22;5939;56.522;14.950;2022-12-19T05:16:31;-0.30;99.90
11764;DHT22;5939;56.522;14.950;2022-12-19T05:18:58;-0.30;99.90
11764;DHT22;5939;56.522;14.950;2022-12-19T05:21:23;-0.30;99.90
11764;DHT22;5939;56.522;14.950;2022-12-19T05:23:49;-0.30;99.90
11764;DHT22;5939;56.522;14.950;2022-12-19T05:26:16;-0.40;99.90
11764;DHT22;5939;56.522;14.950;2022-12-19T05:28:41;-0.40;99.90
11764;DHT22;5939;56.522;14.950;2022-12-19T05:31:13;-0.40;99.90
11764;DHT22;5939;56.522;14.950;2022-12-19T05:33:40;-0.40;99.90
11764;DHT22;5939;56.522;14.950;2022-12-19T05:36:06;-0.40;99.90
11764;DHT22;5939;56.522;14.950;2022-12-19T05:38:33;-0.40;99.90
11764;DHT22;5939;56.522;14.950;2022-12-19T05:40:58;-0.40;99.90
11764;DHT22;5939;56.522;14.950;2022-12-19T05:43:25;-0.40;99.90
11764;DHT22;5939;56.522;14.950;2022-12-19T05:45:50;-0.40;99.90
11764;DHT22;5939;56.522;14.950;2022-12-19T05:48:16;-0.40;99.90
11764;DHT22;5939;56.522;14.950;2022-12-19T05:50:47;-0.40;99.90
11764;DHT22;5939;56.522;14.950;2022-12-19T05:53:13;-0.40;99.90
11764;DHT22;5939;56.522;14.950;2022-12-19T05:55:39;-0.40;99.90
11764;DHT22;5939;56.522;14.950;2022-12-19T05:58:05;-0.40;99.90
11764;DHT22;5939;56.522;14.950;2022-12-19T06:00:31;-0.40;99.90
11764;DHT22;5939;56.522;14.950;2022-12-19T06:02:56;-0.40;99.90
11764;DHT22;5939;56.522;14.950;2022-12-19T06:05:22;-0.40;99.90
11764;DHT22;5939;56.522;14.950;2022-12-19T06:07:47;-0.40;99.90
11764;DHT22;5939;56.522;14.950;2022-12-19T06:10:13;-0.40;99.90
11764;DHT22;5939;56.522;14.950;2022-12-19T06:12:39;-0.50;99.90
11764;DHT22;5939;56.522;14.950;2022-12-19T06:15:05;-0.50;99.90
11764;DHT22;5939;56.522;14.950;2022-12-19T06:17:30;-0.50;99.90
11764;DHT22;5939;56.522;14.950;2022-12-19T06:19:56;-0.50;99.90
11764;DHT22;5939;56.522;14.950;2022-12-19T06:22:22;-0.50;99.90
11764;DHT22;5939;56.522;14.950;2022-12-19T06:24:48;-0.50;99.90
11764;DHT22;5939;56.522;14.950;2022-12-19T06:27:14;-0.50;99.90
11764;DHT22;5939;56.522;14.950;2022-12-19T06:29:39;-0.50;99.90
11764;DHT22;5939;56.522;14.950;2022-12-19T06:32:05;-0.50;99.90
11764;DHT22;5939;56.522;14.950;2022-12-19T06:34:31;-0.50;99.90
11764;DHT22;5939;56.522;14.950;2022-12-19T06:36:56;-0.50;99.90
11764;DHT22;5939;56.522;14.950;2022-12-19T06:39:23;-0.50;99.90
11764;DHT22;5939;56.522;14.950;2022-12-19T06:41:49;-0.50;99.90
11764;DHT22;5939;56.522;14.950;2022-12-19T06:44:33;-0.50;99.90
11764;DHT22;5939;56.522;14.950;2022-12-19T06:46:59;-0.50;99.90
11764;DHT22;5939;56.522;14.950;2022-12-19T06:49:24;-0.50;99.90
11764;DHT22;5939;56.522;14.950;2022-12-19T06:51:50;-0.50;99.90
11764;DHT22;5939;56.522;14.950;2022-12-19T06:54:15;-0.50;99.90
11764;DHT22;5939;56.522;14.950;2022-12-19T06:56:42;-0.50;99.90
11764;DHT22;5939;56.522;14.950;2022-12-19T06:59:12;-0.40;99.90
11764;DHT22;5939;56.522;14.950;2022-12-19T07:04:16;-0.40;99.90
11764;DHT22;5939;56.522;14.950;2022-12-19T07:06:45;-0.40;99.90
11764;DHT22;5939;56.522;14.950;2022-12-19T07:09:11;-0.40;99.90
11764;DHT22;5939;56.522;14.950;2022-12-19T07:11:36;-0.40;99.90
11764;DHT22;5939;56.522;14.950;2022-12-19T07:14:02;-0.40;99.90
11764;DHT22;5939;56.522;14.950;2022-12-19T07:16:27;-0.40;99.90
11764;DHT22;5939;56.522;14.950;2022-12-19T07:18:53;-0.40;99.90
11764;DHT22;5939;56.522;14.950;2022-12-19T07:21:19;-0.40;99.90
11764;DHT22;5939;56.522;14.950;2022-12-19T07:23:44;-0.40;99.90
11764;DHT22;5939;56.522;14.950;2022-12-19T07:26:10;-0.40;99.90
11764;DHT22;5939;56.522;14.950;2022-12-19T07:28:36;-0.40;99.90
11764;DHT22;5939;56.522;14.950;2022-12-19T07:31:02;-0.40;99.90
11764;DHT22;5939;56.522;14.950;2022-12-19T07:33:28;-0.40;99.90
11764;DHT22;5939;56.522;14.950;2022-12-19T07:35:54;-0.40;99.90
11764;DHT22;5939;56.522;14.950;2022-12-19T07:38:19;-0.40;99.90
11764;DHT22;5939;56.522;14.950;2022-12-19T07:40:45;-0.40;99.90
11764;DHT22;5939;56.522;14.950;2022-12-19T07:43:10;-0.40;99.90
11764;DHT22;5939;56.522;14.950;2022-12-19T07:45:37;-0.30;99.90
11764;DHT22;5939;56.522;14.950;2022-12-19T07:48:04;-0.30;99.90
11764;DHT22;5939;56.522;14.950;2022-12-19T07:50:30;-0.30;99.90
11764;DHT22;5939;56.522;14.950;2022-12-19T07:52:57;-0.30;99.90
11764;DHT22;5939;56.522;14.950;2022-12-19T07:55:23;-0.30;99.90
11764;DHT22;5939;56.522;14.950;2022-12-19T07:57:48;-0.30;99.90
11764;DHT22;5939;56.522;14.950;2022-12-19T08:00:15;-0.30;99.90
11764;DHT22;5939;56.522;14.950;2022-12-19T08:02:40;-0.30;99.90
11764;DHT22;5939;56.522;14.950;2022-12-19T08:05:06;-0.30;99.90
11764;DHT22;5939;56.522;14.950;2022-12-19T08:07:32;-0.30;99.90
11764;DHT22;5939;56.522;14.950;2022-12-19T08:09:58;-0.30;99.90
11764;DHT22;5939;56.522;14.950;2022-12-19T08:12:24;-0.30;99.90
11764;DHT22;5939;56.522;14.950;2022-12-19T08:14:49;-0.30;99.90
11764;DHT22;5939;56.522;14.950;2022-12-19T08:17:15;-0.30;99.90
11764;DHT22;5939;56.522;14.950;2022-12-19T08:19:40;-0.30;99.90
11764;DHT22;5939;56.522;14.950;2022-12-19T08:22:06;-0.30;99.90
11764;DHT22;5939;56.522;14.950;2022-12-19T08:24:32;-0.30;99.90
11764;DHT22;5939;56.522;14.950;2022-12-19T08:26:57;-0.20;99.90
11764;DHT22;5939;56.522;14.950;2022-12-19T08:29:23;-0.20;99.90
11764;DHT22;5939;56.522;14.950;2022-12-19T08:31:49;-0.20;99.90
11764;DHT22;5939;56.522;14.950;2022-12-19T08:34:15;-0.20;99.90
11764;DHT22;5939;56.522;14.950;2022-12-19T08:36:41;-0.20;99.90
11764;DHT22;5939;56.522;14.950;2022-12-19T08:39:07;-0.20;99.90
11764;DHT22;5939;56.522;14.950;2022-12-19T08:41:33;-0.20;99.90
11764;DHT22;5939;56.522;14.950;2022-12-19T08:43:58;-0.20;99.90
11764;DHT22;5939;56.522;14.950;2022-12-19T08:46:25;-0.20;99.90
11764;DHT22;5939;56.522;14.950;2022-12-19T08:48:51;-0.20;99.90
11764;DHT22;5939;56.522;14.950;2022-12-19T08:51:17;-0.20;99.90
11764;DHT22;5939;56.522;14.950;2022-12-19T08:53:44;-0.20;99.90
11764;DHT22;5939;56.522;14.950;2022-12-19T08:56:13;-0.10;99.90
11764;DHT22;5939;56.522;14.950;2022-12-19T08:58:40;-0.10;99.90
11764;DHT22;5939;56.522;14.950;2022-12-19T09:01:09;-0.10;99.90
11764;DHT22;5939;56.522;14.950;2022-12-19T09:03:36;-0.10;99.90
11764;DHT22;5939;56.522;14.950;2022-12-19T09:06:04;-0.10;99.90
11764;DHT22;5939;56.522;14.950;2022-12-19T09:08:31;-0.10;99.90
11764;DHT22;5939;56.522;14.950;2022-12-19T09:13:31;-0.10;99.90
11764;DHT22;5939;56.522;14.950;2022-12-19T09:16:01;-0.10;99.90
11764;DHT22;5939;56.522;14.950;2022-12-19T09:18:28;0.00;99.90
11764;DHT22;5939;56.522;14.950;2022-12-19T09:20:54;0.00;99.90
11764;DHT22;5939;56.522;14.950;2022-12-19T09:23:21;0.00;99.90
11764;DHT22;5939;56.522;14.950;2022-12-19T09:25:47;0.00;99.90
11764;DHT22;5939;56.522;14.950;2022-12-19T09:28:12;0.00;99.90
11764;DHT22;5939;56.522;14.950;2022-12-19T09:30:38;0.00;99.90
11764;DHT22;5939;56.522;14.950;2022-12-19T09:33:04;0.00;99.90
11764;DHT22;5939;56.522;14.950;2022-12-19T09:35:30;0.10;99.90
11764;DHT22;5939;56.522;14.950;2022-12-19T09:37:56;0.10;99.90
11764;DHT22;5939;56.522;14.950;2022-12-19T09:40:21;0.10;99.90
11764;DHT22;5939;56.522;14.950;2022-12-19T09:43:06;0.10;99.90
11764;DHT22;5939;56.522;14.950;2022-12-19T09:48:31;0.10;99.90
11764;DHT22;5939;56.522;14.950;2022-12-19T09:53:50;0.20;99.90
11764;DHT22;5939;56.522;14.950;2022-12-19T09:56:19;0.20;99.90
11764;DHT22;5939;56.522;14.950;2022-12-19T09:58:50;0.20;99.90
11764;DHT22;5939;56.522;14.950;2022-12-19T10:01:30;0.20;99.90
11764;DHT22;5939;56.522;14.950;2022-12-19T10:04:10;0.20;99.90
11764;DHT22;5939;56.522;14.950;2022-12-19T10:06:36;0.30;99.90
11764;DHT22;5939;56.522;14.950;2022-12-19T10:09:02;0.30;99.90
11764;DHT22;5939;56.522;14.950;2022-12-19T10:14:43;0.30;99.90
11764;DHT22;5939;56.522;14.950;2022-12-19T10:20:34;0.30;99.90
11764;DHT22;5939;56.522;14.950;2022-12-19T10:23:30;0.40;99.90
11764;DHT22;5939;56.522;14.950;2022-12-19T10:26:20;0.40;99.90
11764;DHT22;5939;56.522;14.950;2022-12-19T10:29:02;0.40;99.90
11764;DHT22;5939;56.522;14.950;2022-12-19T10:31:40;0.40;99.90
11764;DHT22;5939;56.522;14.950;2022-12-19T10:34:21;0.40;99.90
11764;DHT22;5939;56.522;14.950;2022-12-19T10:36:51;0.50;99.90
11764;DHT22;5939;56.522;14.950;2022-12-19T10:39:39;0.50;99.90
11764;DHT22;5939;56.522;14.950;2022-12-19T10:45:11;0.50;99.90
11764;DHT22;5939;56.522;14.950;2022-12-19T10:47:39;0.50;99.90
11764;DHT22;5939;56.522;14.950;2022-12-19T10:50:14;0.50;99.90
11764;DHT22;5939;56.522;14.950;2022-12-19T10:52:47;0.50;99.90
11764;DHT22;5939;56.522;14.950;2022-12-19T10:55:32;0.60;99.90
11764;DHT22;5939;56.522;14.950;2022-12-19T10:58:26;0.60;99.90
11764;DHT22;5939;56.522;14.950;2022-12-19T11:01:03;0.60;99.90
11764;DHT22;5939;56.522;14.950;2022-12-19T11:03:31;0.60;99.90
11764;DHT22;5939;56.522;14.950;2022-12-19T11:05:57;0.60;99.90
11764;DHT22;5939;56.522;14.950;2022-12-19T11:08:36;0.60;99.90
11764;DHT22;5939;56.522;14.950;2022-12-19T11:16:00;0.70;99.90
11764;DHT22;5939;56.522;14.950;2022-12-19T11:18:43;0.70;99.90
11764;DHT22;5939;56.522;14.950;2022-12-19T11:21:16;0.70;99.90
11764;DHT22;5939;56.522;14.950;2022-12-19T11:23:54;0.70;99.90
11764;DHT22;5939;56.522;14.950;2022-12-19T11:31:42;0.70;99.90
11764;DHT22;5939;56.522;14.950;2022-12-19T11:34:17;0.80;99.90
11764;DHT22;5939;56.522;14.950;2022-12-19T11:39:52;0.80;99.90
11764;DHT22;5939;56.522;14.950;2022-12-19T11:42:31;0.80;99.90
11764;DHT22;5939;56.522;14.950;2022-12-19T11:48:12;0.80;99.90
11764;DHT22;5939;56.522;14.950;2022-12-19T11:54:01;0.80;99.90
11764;DHT22;5939;56.522;14.950;2022-12-19T11:56:22;0.90;99.90
11764;DHT22;5939;56.522;14.950;2022-12-19T11:58:52;0.90;99.90
11764;DHT22;5939;56.522;14.950;2022-12-19T12:06:53;0.90;99.90
11764;DHT22;5939;56.522;14.950;2022-12-19T12:09:41;0.90;99.90
11764;DHT22;5939;56.522;14.950;2022-12-19T12:12:23;0.90;99.90
11764;DHT22;5939;56.522;14.950;2022-12-19T12:21:06;0.90;99.90
11764;DHT22;5939;56.522;14.950;2022-12-19T12:23:46;1.00;99.90
11764;DHT22;5939;56.522;14.950;2022-12-19T12:26:28;1.00;99.90
11764;DHT22;5939;56.522;14.950;2022-12-19T12:31:43;1.00;99.90
11764;DHT22;5939;56.522;14.950;2022-12-19T12:34:23;1.00;99.90
11764;DHT22;5939;56.522;14.950;2022-12-19T12:44:53;1.00;99.90
11764;DHT22;5939;56.522;14.950;2022-12-19T12:47:24;1.00;99.90
11764;DHT22;5939;56.522;14.950;2022-12-19T12:50:06;1.00;99.90
11764;DHT22;5939;56.522;14.950;2022-12-19T12:52:36;1.10;99.90
11764;DHT22;5939;56.522;14.950;2022-12-19T12:55:11;1.10;99.90
11764;DHT22;5939;56.522;14.950;2022-12-19T12:57:38;1.10;99.90
11764;DHT22;5939;56.522;14.950;2022-12-19T13:02:52;1.10;99.90
11764;DHT22;5939;56.522;14.950;2022-12-19T13:07:52;1.10;99.90
11764;DHT22;5939;56.522;14.950;2022-12-19T13:10:25;1.10;99.90
11764;DHT22;5939;56.522;14.950;2022-12-19T13:13:12;1.10;99.90
11764;DHT22;5939;56.522;14.950;2022-12-19T13:15:40;1.10;99.90
11764;DHT22;5939;56.522;14.950;2022-12-19T13:20:54;1.10;99.90
11764;DHT22;5939;56.522;14.950;2022-12-19T13:23:33;1.20;99.90
11764;DHT22;5939;56.522;14.950;2022-12-19T13:26:42;1.20;99.90
11764;DHT22;5939;56.522;14.950;2022-12-19T13:29:27;1.20;99.90
11764;DHT22;5939;56.522;14.950;2022-12-19T13:32:14;1.20;99.90
11764;DHT22;5939;56.522;14.950;2022-12-19T13:34:50;1.20;99.90
11764;DHT22;5939;56.522;14.950;2022-12-19T13:37:27;1.20;99.90
11764;DHT22;5939;56.522;14.950;2022-12-19T13:42:25;1.20;99.90
11764;DHT22;5939;56.522;14.950;2022-12-19T13:45:24;1.20;99.90
11764;DHT22;5939;56.522;14.950;2022-12-19T13:47:56;1.20;99.90
11764;DHT22;5939;56.522;14.950;2022-12-19T13:50:37;1.20;99.90
11764;DHT22;5939;56.522;14.950;2022-12-19T13:53:24;1.20;99.90
11764;DHT22;5939;56.522;14.950;2022-12-19T13:55:59;1.20;99.90
11764;DHT22;5939;56.522;14.950;2022-12-19T13:58:27;1.30;99.90
11764;DHT22;5939;56.522;14.950;2022-12-19T14:00:56;1.30;99.90
11764;DHT22;5939;56.522;14.950;2022-12-19T14:03:41;1.30;99.90
11764;DHT22;5939;56.522;14.950;2022-12-19T14:06:22;1.20;99.90
11764;DHT22;5939;56.522;14.950;2022-12-19T14:08:50;1.30;99.90
11764;DHT22;5939;56.522;14.950;2022-12-19T14:11:19;1.30;99.90
11764;DHT22;5939;56.522;14.950;2022-12-19T14:14:07;1.30;99.90
11764;DHT22;5939;56.522;14.950;2022-12-19T14:16:54;1.30;99.90
11764;DHT22;5939;56.522;14.950;2022-12-19T14:19:26;1.30;99.90
11764;DHT22;5939;56.522;14.950;2022-12-19T14:21:53;1.30;99.90
11764;DHT22;5939;56.522;14.950;2022-12-19T14:24:21;1.30;99.90
11764;DHT22;5939;56.522;14.950;2022-12-19T14:26:55;1.30;99.90
11764;DHT22;5939;56.522;14.950;2022-12-19T14:29:25;1.30;99.90
11764;DHT22;5939;56.522;14.950;2022-12-19T14:31:52;1.30;99.90
11764;DHT22;5939;56.522;14.950;2022-12-19T14:34:27;1.30;99.90
11764;DHT22;5939;56.522;14.950;2022-12-19T14:36:58;1.30;99.90
11764;DHT22;5939;56.522;14.950;2022-12-19T14:39:33;1.30;99.90
11764;DHT22;5939;56.522;14.950;2022-12-19T14:42:12;1.30;99.90
11764;DHT22;5939;56.522;14.950;2022-12-19T14:44:57;1.30;99.90
11764;DHT22;5939;56.522;14.950;2022-12-19T14:47:41;1.30;99.90
11764;DHT22;5939;56.522;14.950;2022-12-19T14:50:26;1.40;99.90
11764;DHT22;5939;56.522;14.950;2022-12-19T14:53:15;1.40;99.90
11764;DHT22;5939;56.522;14.950;2022-12-19T14:55:41;1.40;99.90
11764;DHT22;5939;56.522;14.950;2022-12-19T14:58:17;1.40;99.90
11764;DHT22;5939;56.522;14.950;2022-12-19T15:00:48;1.40;99.90
11764;DHT22;5939;56.522;14.950;2022-12-19T15:03:22;1.40;99.90
11764;DHT22;5939;56.522;14.950;2022-12-19T15:05:49;1.40;99.90
11764;DHT22;5939;56.522;14.950;2022-12-19T15:08:27;1.40;99.90
11764;DHT22;5939;56.522;14.950;2022-12-19T15:10:58;1.40;99.90
11764;DHT22;5939;56.522;14.950;2022-12-19T15:13:54;1.40;99.90
11764;DHT22;5939;56.522;14.950;2022-12-19T15:16:31;1.40;99.90
11764;DHT22;5939;56.522;14.950;2022-12-19T15:19:00;1.40;99.90
11764;DHT22;5939;56.522;14.950;2022-12-19T15:21:28;1.40;99.90
11764;DHT22;5939;56.522;14.950;2022-12-19T15:23:54;1.40;99.90
11764;DHT22;5939;56.522;14.950;2022-12-19T15:26:31;1.40;99.90
11764;DHT22;5939;56.522;14.950;2022-12-19T15:28:57;1.40;99.90
11764;DHT22;5939;56.522;14.950;2022-12-19T15:34:24;1.40;99.90
11764;DHT22;5939;56.522;14.950;2022-12-19T15:36:52;1.40;99.90
11764;DHT22;5939;56.522;14.950;2022-12-19T15:39:18;1.50;99.90
11764;DHT22;5939;56.522;14.950;2022-12-19T15:41:46;1.40;99.90
11764;DHT22;5939;56.522;14.950;2022-12-19T15:44:30;1.50;99.90
11764;DHT22;5939;56.522;14.950;2022-12-19T15:46:57;1.50;99.90
11764;DHT22;5939;56.522;14.950;2022-12-19T15:49:23;1.50;99.90
11764;DHT22;5939;56.522;14.950;2022-12-19T15:51:49;1.50;99.90
11764;DHT22;5939;56.522;14.950;2022-12-19T15:54:15;1.50;99.90
11764;DHT22;5939;56.522;14.950;2022-12-19T15:56:44;1.50;99.90
11764;DHT22;5939;56.522;14.950;2022-12-19T15:59:33;1.50;99.90
11764;DHT22;5939;56.522;14.950;2022-12-19T16:02:00;1.50;99.90
11764;DHT22;5939;56.522;14.950;2022-12-19T16:04:25;1.50;99.90
11764;DHT22;5939;56.522;14.950;2022-12-19T16:06:52;1.50;99.90
11764;DHT22;5939;56.522;14.950;2022-12-19T16:09:23;1.50;99.90
11764;DHT22;5939;56.522;14.950;2022-12-19T16:11:50;1.50;99.90
11764;DHT22;5939;56.522;14.950;2022-12-19T16:14:18;1.50;99.90
11764;DHT22;5939;56.522;14.950;2022-12-19T16:16:54;1.50;99.90
11764;DHT22;5939;56.522;14.950;2022-12-19T16:19:26;1.50;99.90
11764;DHT22;5939;56.522;14.950;2022-12-19T16:21:53;1.50;99.90
11764;DHT22;5939;56.522;14.950;2022-12-19T16:24:19;1.50;99.90
11764;DHT22;5939;56.522;14.950;2022-12-19T16:26:55;1.50;99.90
11764;DHT22;5939;56.522;14.950;2022-12-19T16:29:24;1.50;99.90
11764;DHT22;5939;56.522;14.950;2022-12-19T16:31:51;1.50;99.90
11764;DHT22;5939;56.522;14.950;2022-12-19T16:34:20;1.60;99.90
11764;DHT22;5939;56.522;14.950;2022-12-19T16:36:47;1.60;99.90
11764;DHT22;5939;56.522;14.950;2022-12-19T16:39:13;1.60;99.90
11764;DHT22;5939;56.522;14.950;2022-12-19T16:41:39;1.50;99.90
11764;DHT22;5939;56.522;14.950;2022-12-19T16:44:16;1.60;99.90
11764;DHT22;5939;56.522;14.950;2022-12-19T16:46:42;1.60;99.90
11764;DHT22;5939;56.522;14.950;2022-12-19T16:49:20;1.50;99.90
11764;DHT22;5939;56.522;14.950;2022-12-19T16:51:49;1.60;99.90
11764;DHT22;5939;56.522;14.950;2022-12-19T16:54:15;1.60;99.90
11764;DHT22;5939;56.522;14.950;2022-12-19T16:56:48;1.60;99.90
11764;DHT22;5939;56.522;14.950;2022-12-19T16:59:15;1.60;99.90
11764;DHT22;5939;56.522;14.950;2022-12-19T17:01:43;1.60;99.90
11764;DHT22;5939;56.522;14.950;2022-12-19T17:04:14;1.60;99.90
11764;DHT22;5939;56.522;14.950;2022-12-19T17:06:41;1.60;99.90
11764;DHT22;5939;56.522;14.950;2022-12-19T17:09:10;1.60;99.90
11764;DHT22;5939;56.522;14.950;2022-12-19T17:11:37;1.60;99.90
11764;DHT22;5939;56.522;14.950;2022-12-19T17:14:09;1.60;99.90
11764;DHT22;5939;56.522;14.950;2022-12-19T17:16:36;1.60;99.90
11764;DHT22;5939;56.522;14.950;2022-12-19T17:19:02;1.60;99.90
11764;DHT22;5939;56.522;14.950;2022-12-19T17:21:28;1.60;99.90
11764;DHT22;5939;56.522;14.950;2022-12-19T17:23:54;1.60;99.90
11764;DHT22;5939;56.522;14.950;2022-12-19T17:26:19;1.60;99.90
11764;DHT22;5939;56.522;14.950;2022-12-19T17:28:45;1.60;99.90
11764;DHT22;5939;56.522;14.950;2022-12-19T17:31:25;1.60;99.90
11764;DHT22;5939;56.522;14.950;2022-12-19T17:33:51;1.60;99.90
11764;DHT22;5939;56.522;14.950;2022-12-19T17:36:19;1.60;99.90
11764;DHT22;5939;56.522;14.950;2022-12-19T17:38:44;1.70;99.90
11764;DHT22;5939;56.522;14.950;2022-12-19T17:41:13;1.70;99.90